METAR Data
IDs: Format: Raw Decoded Include TAF

Data at: 0122 UTC 24 Sep 2018

KPNC 240053Z AUTO 17006KT 10SM CLR 21/17 A2993 RMK AO2 SLP126 T02110167
KPNC 232353Z AUTO 16011KT 10SM CLR 23/17 A2992 RMK AO2 SLP124 T02330167 10267 20211 55006
KPNC 232253Z AUTO 11006KT 10SM CLR 26/14 A2992 RMK AO2 SLP123 T02560144
KPNC 232153Z AUTO 14011KT 10SM CLR 27/14 A2993 RMK AO2 SLP125 T02670139
KPNC 232053Z AUTO 09010KT 10SM CLR 27/14 A2994 RMK AO2 SLP130 T02670144 56033
KPNC 231953Z AUTO 09007KT 10SM CLR 25/15 A2998 RMK AO2 SLP142 T02500150
KPNC 231853Z AUTO VRB06KT 10SM CLR 24/15 A3001 RMK AO2 SLP155 T02390150
KPNC 231810Z AUTO 10006KT 10SM SCT020 22/15 A3004 RMK AO2 T02220150
KPNC 231753Z AUTO 13007KT 10SM OVC017 22/16 A3005 RMK AO2 SLP167 T02220156 10222 20178 58006
KPNC 231736Z AUTO 07006KT 10SM OVC016 21/16 A3005 RMK AO2 T02060156
KPNC 231653Z AUTO 06007KT 10SM OVC013 19/15 A3006 RMK AO2 SLP173 T01940150
KPNC 231553Z AUTO 09006KT 10SM OVC011 19/15 A3007 RMK AO2 SLP175 T01890150
KPNC 231453Z AUTO 09007KT 10SM OVC011 18/15 A3007 RMK AO2 SLP173 T01780150 53007
KPNC 231353Z AUTO 08005KT 10SM OVC011 18/15 A3006 RMK AO2 SLP170 T01780150
KPNC 231253Z AUTO 06007KT 10SM OVC012 18/14 A3005 RMK AO2 SLP167 T01780144
KPNC 231153Z AUTO 04004KT 10SM OVC012 18/15 A3004 RMK AO2 SLP164 T01780150 10178 20139 53003
KPNC 231053Z AUTO 08004KT 10SM OVC012 18/15 A3003 RMK AO2 SLP161 T01780150
KPNC 230953Z AUTO 08008KT 10SM OVC012 18/15 A3003 RMK AO2 SLP159 T01780150
KPNC 230924Z AUTO 06003KT 10SM OVC014 17/15 A3003 RMK AO2 T01720150
KPNC 230853Z AUTO 07004KT 10SM OVC017 17/15 A3003 RMK AO2 SLP161 T01670150 58009
KPNC 230753Z AUTO 04003KT 10SM OVC019 16/14 A3004 RMK AO2 SLP165 T01560139
KPNC 230713Z AUTO 01003KT 10SM BKN019 14/13 A3005 RMK AO2 T01390128
KPNC 230653Z AUTO 00000KT 10SM FEW020 14/13 A3005 RMK AO2 SLP168 T01390128
KPNC 230553Z AUTO 01004KT 10SM CLR 14/13 A3006 RMK AO2 SLP172 T01390128 10239 20139 402610111 56008
KPNC 230453Z AUTO 13003KT 10SM CLR 17/14 A3007 RMK AO2 SLP173 T01720144
KPNC 230353Z AUTO 11004KT 10SM CLR 18/14 A3007 RMK AO2 SLP177 T01780144
KPNC 230253Z AUTO 11006KT 10SM CLR 19/15 A3008 RMK AO2 SLP180 T01890150 53012
KPNC 230153Z AUTO 07004KT 10SM CLR 19/14 A3007 RMK AO2 SLP176 T01890144
KPNC 230053Z AUTO 07005KT 10SM CLR 21/14 A3006 RMK AO2 SLP171 T02110139
KPNC 222353Z AUTO 08007KT 10SM CLR 24/13 A3005 RMK AO2 SLP169 T02390133 10261 20222 56008
KPNC 222253Z AUTO 07008KT 10SM CLR 26/13 A3005 RMK AO2 SLP167 T02560133
KPNC 222153Z AUTO 06010KT 10SM CLR 26/13 A3006 RMK AO2 SLP169 T02610133
KPNC 222053Z AUTO 05010KT 10SM CLR 26/12 A3007 RMK AO2 SLP175 T02560122 56027
KPNC 221953Z AUTO 03009KT 10SM CLR 25/13 A3010 RMK AO2 SLP183 T02500128
KPNC 221853Z AUTO 03008KT 10SM CLR 24/14 A3012 RMK AO2 SLP193 T02440139
KPNC 221753Z AUTO 04009KT 10SM CLR 22/13 A3015 RMK AO2 SLP204 T02220133 10222 20111 58014
KPNC 221653Z AUTO 06009KT 10SM CLR 21/12 A3018 RMK AO2 SLP212 T02060122
KPNC 221553Z AUTO 05011KT 10SM CLR 19/12 A3019 RMK AO2 SLP217 T01890122
KPNC 221453Z AUTO 04011KT 10SM CLR 17/11 A3020 RMK AO2 SLP219 T01720111 58000
KPNC 221353Z AUTO 04013KT 10SM CLR 14/10 A3020 RMK AO2 SLP221 T01440100